createdAt,value
2022-11-16T00:01:41.070Z,63.42
2022-11-16T00:04:45.395Z,63.08
2022-11-16T00:07:49.809Z,57.80
2022-11-16T00:10:54.565Z,57.72
2022-11-16T00:13:58.890Z,50.30
2022-11-16T00:17:04.227Z,66.82
2022-11-16T00:20:09.210Z,61.03
2022-11-16T00:23:13.863Z,53.22
2022-11-16T00:26:18.437Z,57.10
2022-11-16T00:29:25.035Z,54.08
2022-11-16T00:32:30.088Z,60.15
2022-11-16T00:35:38.788Z,55.63
2022-11-16T00:38:43.725Z,56.90
2022-11-16T00:41:50.889Z,66.00
2022-11-16T00:44:55.469Z,51.35
2022-11-16T00:48:00.744Z,57.50
2022-11-16T00:54:10.570Z,58.50
2022-11-16T00:57:15.833Z,82.68
2022-11-16T01:00:22.078Z,59.38
2022-11-16T01:03:27.763Z,47.80
2022-11-16T01:06:32.014Z,63.53
2022-11-16T01:09:37.612Z,55.47
2022-11-16T01:12:42.534Z,57.63
2022-11-16T01:15:50.188Z,43.30
2022-11-16T01:18:56.368Z,54.88
2022-11-16T01:22:01.119Z,51.97
2022-11-16T01:25:06.765Z,57.90
2022-11-16T01:28:10.889Z,59.13
2022-11-16T01:31:25.218Z,52.97
2022-11-16T01:34:29.790Z,57.83
2022-11-16T01:37:41.960Z,58.53
2022-11-16T01:40:46.751Z,61.08
2022-11-16T01:47:11.399Z,61.97
2022-11-16T01:50:19.536Z,58.72
2022-11-16T01:53:26.848Z,51.20
2022-11-16T01:56:36.745Z,50.92
2022-11-16T01:59:50.234Z,44.55
2022-11-16T02:02:57.189Z,50.08
2022-11-16T02:06:27.766Z,71.78
2022-11-16T02:09:55.742Z,56.47
2022-11-16T02:13:34.662Z,95.47
2022-11-16T02:16:58.836Z,82.78
2022-11-16T02:20:44.699Z,53.63
2022-11-16T02:24:04.440Z,68.10
2022-11-16T02:27:29.474Z,54.78
2022-11-16T02:30:34.459Z,57.30
2022-11-16T02:33:42.471Z,58.80
2022-11-16T02:36:50.120Z,57.25
2022-11-16T02:39:59.190Z,69.97
2022-11-16T02:43:22.579Z,54.22
2022-11-16T02:46:37.354Z,66.50
2022-11-16T02:49:49.991Z,61.07
2022-11-16T02:52:54.409Z,60.13
2022-11-16T02:56:01.131Z,69.88
2022-11-16T02:59:05.472Z,68.00
2022-11-16T03:02:31.832Z,65.30
2022-11-16T03:06:13.697Z,69.68
2022-11-16T03:09:32.450Z,64.03
2022-11-16T03:12:39.499Z,59.05
2022-11-16T03:15:45.263Z,62.28
2022-11-16T03:18:54.388Z,71.03
2022-11-16T03:22:11.264Z,52.75
2022-11-16T03:25:19.951Z,66.70
2022-11-16T03:28:48.168Z,65.07
2022-11-16T03:31:58.496Z,65.28
2022-11-16T03:35:12.574Z,57.42
2022-11-16T03:38:18.645Z,66.95
2022-11-16T03:41:25.564Z,58.65
2022-11-16T03:44:32.077Z,54.53
2022-11-16T03:47:36.528Z,58.33
2022-11-16T03:50:42.367Z,65.95
2022-11-16T03:53:46.952Z,66.35
2022-11-16T03:56:51.354Z,59.17
2022-11-16T03:59:55.667Z,58.47
2022-11-16T04:03:00.151Z,51.92
2022-11-16T04:06:23.649Z,56.75
2022-11-16T04:09:46.361Z,67.10
2022-11-16T04:13:09.282Z,73.53
2022-11-16T04:16:32.629Z,61.03
2022-11-16T04:19:58.299Z,50.70
2022-11-16T04:23:30.538Z,44.92
2022-11-16T04:26:54.584Z,62.38
2022-11-16T04:30:01.163Z,71.75
2022-11-16T04:33:28.752Z,76.53
2022-11-16T04:36:51.413Z,70.70
2022-11-16T04:39:56.281Z,83.03
2022-11-16T04:43:04.214Z,65.25
2022-11-16T04:46:34.612Z,52.65
2022-11-16T04:49:39.433Z,56.38
2022-11-16T04:52:44.688Z,70.20
2022-11-16T04:55:54.380Z,87.80
2022-11-16T04:59:01.129Z,64.78
2022-11-16T05:02:09.040Z,60.45
2022-11-16T05:05:30.575Z,59.95
2022-11-16T05:08:36.876Z,73.32
2022-11-16T05:11:42.614Z,76.38
2022-11-16T05:14:48.358Z,61.55
2022-11-16T05:17:56.494Z,76.25
2022-11-16T05:21:02.556Z,74.05
2022-11-16T05:24:32.285Z,140.85
2022-11-16T05:27:38.899Z,71.43
2022-11-16T05:30:47.608Z,72.20
2022-11-16T05:33:56.363Z,79.88
2022-11-16T05:37:02.179Z,100.03
2022-11-16T05:40:08.351Z,76.07
2022-11-16T05:43:28.012Z,184.02
2022-11-16T05:46:47.524Z,71.28
2022-11-16T05:49:53.948Z,63.80
2022-11-16T05:56:05.361Z,69.68
2022-11-16T05:59:17.677Z,57.10
2022-11-16T06:02:23.544Z,58.25
2022-11-16T06:05:28.361Z,56.03
2022-11-16T06:08:34.612Z,51.25
2022-11-16T06:11:43.106Z,56.50
2022-11-16T06:14:47.710Z,55.58
2022-11-16T06:17:52.178Z,53.63
2022-11-16T06:24:03.665Z,50.50
2022-11-16T06:27:07.971Z,54.92
2022-11-16T06:30:13.810Z,47.30
2022-11-16T06:33:18.486Z,47.80
2022-11-16T06:36:23.003Z,54.70
2022-11-16T06:39:27.307Z,52.17
2022-11-16T06:42:32.857Z,65.45
2022-11-16T06:45:38.596Z,46.15
2022-11-16T06:48:43.216Z,45.95
2022-11-16T06:51:50.460Z,57.13
2022-11-16T06:54:54.806Z,52.17
2022-11-16T06:57:59.282Z,58.00
2022-11-16T07:01:08.231Z,55.55
2022-11-16T07:04:16.772Z,46.25
2022-11-16T07:07:27.766Z,55.88
2022-11-16T07:13:38.876Z,57.85
2022-11-16T07:16:45.817Z,52.50
2022-11-16T07:19:50.102Z,62.92
2022-11-16T07:22:54.928Z,61.20
2022-11-16T07:26:03.856Z,64.78
2022-11-16T07:29:32.432Z,55.28
2022-11-16T07:33:09.922Z,98.43
2022-11-16T07:36:32.894Z,200.65
2022-11-16T07:39:37.538Z,86.63
2022-11-16T07:42:46.978Z,83.10
2022-11-16T07:49:39.503Z,66.07
2022-11-16T07:52:50.994Z,92.97
2022-11-16T07:55:59.744Z,98.18
2022-11-16T07:59:07.355Z,100.32
2022-11-16T08:02:17.003Z,119.85
2022-11-16T08:05:21.761Z,63.08
2022-11-16T08:08:28.800Z,81.63
2022-11-16T08:11:33.674Z,100.28
2022-11-16T08:14:38.255Z,77.93
2022-11-16T08:17:43.041Z,63.65
2022-11-16T08:20:49.876Z,55.05
2022-11-16T08:23:58.309Z,62.25
2022-11-16T08:27:03.811Z,91.97
2022-11-16T08:30:10.663Z,86.25
2022-11-16T08:33:16.401Z,101.63
2022-11-16T08:36:21.812Z,108.63
2022-11-16T08:39:26.953Z,74.85
2022-11-16T08:42:31.772Z,68.67
2022-11-16T08:45:36.736Z,52.88
2022-11-16T08:48:41.903Z,57.50
2022-11-16T08:51:47.170Z,64.85
2022-11-16T08:54:51.850Z,62.47
2022-11-16T08:57:57.030Z,61.40
2022-11-16T09:01:07.490Z,57.30
2022-11-16T09:04:12.124Z,78.07
2022-11-16T09:07:16.546Z,81.88
2022-11-16T09:10:23.961Z,68.65
2022-11-16T09:13:29.444Z,50.10
2022-11-16T09:19:41.728Z,67.25
2022-11-16T09:22:46.717Z,69.63
2022-11-16T09:25:51.734Z,100.22
2022-11-16T09:28:59.076Z,77.60
2022-11-16T09:32:03.976Z,74.70
2022-11-16T09:35:08.993Z,66.80
2022-11-16T09:38:20.677Z,62.25
2022-11-16T09:41:52.854Z,61.55
2022-11-16T09:45:01.334Z,64.60
2022-11-16T09:48:13.255Z,52.25
2022-11-16T09:51:19.829Z,63.03
2022-11-16T09:54:40.405Z,61.80
2022-11-16T09:57:46.495Z,74.00
2022-11-16T10:00:58.292Z,56.97
2022-11-16T10:04:21.157Z,59.67
2022-11-16T10:08:19.126Z,60.22
2022-11-16T10:11:39.057Z,58.70
2022-11-16T10:15:29.284Z,88.93
2022-11-16T10:18:47.627Z,55.13
2022-11-16T10:21:57.239Z,89.22
2022-11-16T10:25:09.923Z,61.08
2022-11-16T10:28:51.330Z,57.70
2022-11-16T10:32:06.777Z,57.20
2022-11-16T10:35:19.590Z,57.65
2022-11-16T10:38:32.054Z,60.50
2022-11-16T10:41:46.152Z,59.97
2022-11-16T10:45:05.266Z,54.42
2022-11-16T10:48:16.561Z,51.17
2022-11-16T10:51:21.481Z,57.80
2022-11-16T10:54:26.005Z,52.00
2022-11-16T10:58:03.292Z,60.47
2022-11-16T11:01:12.449Z,51.22
2022-11-16T11:04:24.446Z,48.55
2022-11-16T11:07:35.172Z,54.72
2022-11-16T11:10:44.931Z,57.15
2022-11-16T11:14:05.140Z,49.80
2022-11-16T11:17:15.556Z,51.20
2022-11-16T11:20:25.822Z,57.75
2022-11-16T11:23:30.623Z,57.40
2022-11-16T11:26:42.299Z,58.78
2022-11-16T11:29:54.949Z,63.90
2022-11-16T11:33:00.495Z,50.58
2022-11-16T11:36:10.976Z,50.45
2022-11-16T11:39:15.572Z,51.83
2022-11-16T11:42:24.041Z,55.37
2022-11-16T11:45:43.704Z,53.97
2022-11-16T11:49:12.274Z,50.03
2022-11-16T11:52:23.821Z,54.90
2022-11-16T11:55:28.733Z,52.85
2022-11-16T11:58:40.165Z,53.70
2022-11-16T12:02:17.052Z,53.00
2022-11-16T12:05:50.149Z,49.63
2022-11-16T12:09:32.188Z,48.70
2022-11-16T12:13:21.332Z,49.97
2022-11-16T12:16:35.409Z,52.75
2022-11-16T12:20:08.771Z,50.33
2022-11-16T12:23:25.631Z,53.45
2022-11-16T12:27:10.942Z,48.38
2022-11-16T12:30:31.955Z,52.67
2022-11-16T12:33:48.302Z,52.55
2022-11-16T12:36:55.686Z,50.63
2022-11-16T12:40:27.829Z,48.95
2022-11-16T12:43:53.482Z,48.75
2022-11-16T12:47:27.163Z,50.38
2022-11-16T12:51:26.410Z,49.17
2022-11-16T12:55:26.349Z,50.88
2022-11-16T12:58:53.542Z,44.75
2022-11-16T13:02:06.821Z,46.58
2022-11-16T13:05:32.634Z,49.63
2022-11-16T13:08:55.060Z,50.22
2022-11-16T13:12:06.491Z,48.72
2022-11-16T13:15:20.162Z,44.10
2022-11-16T13:18:26.565Z,51.78
2022-11-16T13:21:48.035Z,48.83
2022-11-16T13:25:44.675Z,50.63
2022-11-16T13:28:52.103Z,51.33
2022-11-16T13:32:37.215Z,45.50
2022-11-16T13:35:41.731Z,44.22
2022-11-16T13:39:06.593Z,47.13
2022-11-16T13:42:15.176Z,46.50
2022-11-16T13:45:23.053Z,48.55
2022-11-16T13:48:38.650Z,46.47
2022-11-16T13:51:53.117Z,43.65
2022-11-16T13:55:02.545Z,45.00
2022-11-16T13:58:10.326Z,51.42
2022-11-16T14:01:16.246Z,44.42
2022-11-16T14:07:50.609Z,46.38
2022-11-16T14:10:58.881Z,45.80
2022-11-16T14:14:11.580Z,46.78
2022-11-16T14:17:50.702Z,43.47
2022-11-16T14:21:03.518Z,52.08
2022-11-16T14:24:20.106Z,48.83
2022-11-16T14:27:41.368Z,50.33
2022-11-16T14:31:16.623Z,48.00
2022-11-16T14:34:25.826Z,50.63
2022-11-16T14:37:41.698Z,41.15
2022-11-16T14:40:58.887Z,48.15
2022-11-16T14:44:04.644Z,47.80
2022-11-16T14:47:27.208Z,44.03
2022-11-16T14:50:36.700Z,50.95
2022-11-16T14:53:55.025Z,46.03
2022-11-16T14:57:05.959Z,43.95
2022-11-16T15:00:20.443Z,39.35
2022-11-16T15:03:29.334Z,48.97
2022-11-16T15:06:44.757Z,48.35
2022-11-16T15:09:53.242Z,41.73
2022-11-16T15:12:58.948Z,44.00
2022-11-16T15:16:31.485Z,43.08
2022-11-16T15:19:36.271Z,45.80
2022-11-16T15:22:46.661Z,43.30
2022-11-16T15:26:00.241Z,46.08
2022-11-16T15:29:04.988Z,44.20
2022-11-16T15:32:17.670Z,48.47
2022-11-16T15:35:34.427Z,50.88
2022-11-16T15:38:39.482Z,44.65
2022-11-16T15:41:44.882Z,41.05
2022-11-16T15:44:49.277Z,52.05
2022-11-16T15:47:54.919Z,45.65
2022-11-16T15:51:17.355Z,47.75
2022-11-16T15:54:24.576Z,43.90
2022-11-16T15:57:29.052Z,41.33
2022-11-16T16:00:37.250Z,43.55
2022-11-16T16:04:01.372Z,43.88
2022-11-16T16:07:06.124Z,44.08
2022-11-16T16:10:20.887Z,48.55
2022-11-16T16:13:30.237Z,41.03
2022-11-16T16:16:41.402Z,46.95
2022-11-16T16:20:06.937Z,41.47
2022-11-16T16:23:18.893Z,38.42
2022-11-16T16:26:24.446Z,42.50
2022-11-16T16:29:29.575Z,42.65
2022-11-16T16:32:36.153Z,45.25
2022-11-16T16:35:41.612Z,47.42
2022-11-16T16:38:46.123Z,47.30
2022-11-16T16:41:50.326Z,39.30
2022-11-16T16:44:54.917Z,43.15
2022-11-16T16:47:59.120Z,40.22
2022-11-16T16:51:04.879Z,41.55
2022-11-16T16:54:10.945Z,44.80
2022-11-16T16:57:19.101Z,41.42
2022-11-16T17:00:23.542Z,45.75
2022-11-16T17:03:27.782Z,43.13
2022-11-16T17:06:32.216Z,39.72
2022-11-16T17:09:36.595Z,44.95
2022-11-16T17:12:41.329Z,47.72
2022-11-16T17:15:45.834Z,43.20
2022-11-16T17:18:54.749Z,43.97
2022-11-16T17:21:59.269Z,46.42
2022-11-16T17:25:03.674Z,48.42
2022-11-16T17:28:08.217Z,40.00
2022-11-16T17:31:14.215Z,41.63
2022-11-16T17:34:18.439Z,53.78
2022-11-16T17:37:24.719Z,39.65
2022-11-16T17:40:28.807Z,46.15
2022-11-16T17:43:33.738Z,44.15
2022-11-16T17:46:38.004Z,44.10
2022-11-16T17:49:42.385Z,52.15
2022-11-16T17:52:47.413Z,42.72
2022-11-16T17:55:52.614Z,40.80
2022-11-16T17:58:59.236Z,44.50
2022-11-16T18:02:04.830Z,41.50
2022-11-16T18:05:10.768Z,42.08
2022-11-16T18:08:15.231Z,46.25
2022-11-16T18:11:22.230Z,42.60
2022-11-16T18:14:27.822Z,40.17
2022-11-16T18:17:32.734Z,44.47
2022-11-16T18:20:38.856Z,43.13
2022-11-16T18:23:44.149Z,41.08
2022-11-16T18:26:49.689Z,45.20
2022-11-16T18:29:54.052Z,47.58
2022-11-16T18:32:58.245Z,43.85
2022-11-16T18:36:03.817Z,48.13
2022-11-16T18:39:08.088Z,43.70
2022-11-16T18:42:13.797Z,44.65
2022-11-16T18:48:23.060Z,45.85
2022-11-16T18:51:29.201Z,45.15
2022-11-16T18:54:34.421Z,44.22
2022-11-16T18:57:38.814Z,47.60
2022-11-16T19:00:43.289Z,44.53
2022-11-16T19:03:48.194Z,42.53
2022-11-16T19:06:52.777Z,45.58
2022-11-16T19:09:56.954Z,39.55
2022-11-16T19:13:01.078Z,47.30
2022-11-16T19:16:07.854Z,48.28
2022-11-16T19:19:12.202Z,42.05
2022-11-16T19:22:16.602Z,43.75
2022-11-16T19:25:21.110Z,40.22
2022-11-16T19:28:25.681Z,43.20
2022-11-16T19:31:33.220Z,38.97
2022-11-16T19:34:37.677Z,43.95
2022-11-16T19:37:41.986Z,44.80
2022-11-16T19:40:46.282Z,43.15
2022-11-16T19:43:53.536Z,48.97
2022-11-16T19:46:58.135Z,44.20
2022-11-16T19:50:02.681Z,48.83
2022-11-16T19:53:06.981Z,47.13
2022-11-16T19:56:13.306Z,42.20
2022-11-16T19:59:18.540Z,45.22
2022-11-16T20:02:22.635Z,48.25
2022-11-16T20:05:27.258Z,43.72
2022-11-16T20:08:31.614Z,43.78
2022-11-16T20:11:38.034Z,42.53
2022-11-16T20:14:42.461Z,45.20
2022-11-16T20:17:46.880Z,44.53
2022-11-16T20:20:51.296Z,36.88
2022-11-16T20:24:05.820Z,44.50
2022-11-16T20:27:10.863Z,44.20
2022-11-16T20:30:15.363Z,41.90
2022-11-16T20:33:20.099Z,38.38
2022-11-16T20:36:26.779Z,38.75
2022-11-16T20:39:31.233Z,56.80
2022-11-16T20:42:35.503Z,45.47
2022-11-16T20:45:40.049Z,40.50
2022-11-16T20:48:45.389Z,43.95
2022-11-16T20:51:51.453Z,38.92
2022-11-16T20:54:56.178Z,44.85
2022-11-16T20:58:00.473Z,48.70
2022-11-16T21:01:07.592Z,44.35
2022-11-16T21:04:12.008Z,44.65
2022-11-16T21:07:16.717Z,44.95
2022-11-16T21:10:21.071Z,42.72
2022-11-16T21:13:44.039Z,45.83
2022-11-16T21:16:48.305Z,44.67
2022-11-16T21:20:20.217Z,48.28
2022-11-16T21:23:17.004Z,49.30
2022-11-16T21:26:24.072Z,43.75
2022-11-16T21:29:28.962Z,41.30
2022-11-16T21:32:33.382Z,45.03
2022-11-16T21:35:37.674Z,40.78
2022-11-16T21:38:42.321Z,43.85
2022-11-16T21:41:46.636Z,36.92
2022-11-16T21:44:50.984Z,40.35
2022-11-16T21:47:55.369Z,47.47
2022-11-16T21:51:17.352Z,45.10
2022-11-16T21:54:21.511Z,45.33
2022-11-16T21:57:25.829Z,42.60
2022-11-16T22:00:30.621Z,51.63
2022-11-16T22:03:35.515Z,41.20
2022-11-16T22:06:58.619Z,49.90
2022-11-16T22:10:13.055Z,43.80
2022-11-16T22:13:17.324Z,46.53
2022-11-16T22:16:23.921Z,41.30
2022-11-16T22:19:28.324Z,51.88
2022-11-16T22:22:32.745Z,46.60
2022-11-16T22:25:38.062Z,48.17
2022-11-16T22:28:43.097Z,43.58
2022-11-16T22:31:48.089Z,56.83
2022-11-16T22:34:52.876Z,65.90
2022-11-16T22:37:57.674Z,48.25
2022-11-16T22:41:02.069Z,57.53
2022-11-16T22:44:06.851Z,46.58
2022-11-16T22:47:11.327Z,41.28
2022-11-16T22:50:15.882Z,53.20
2022-11-16T22:53:20.159Z,42.08
2022-11-16T22:56:25.192Z,37.60
2022-11-16T22:59:29.717Z,46.17
2022-11-16T23:02:33.950Z,36.28
2022-11-16T23:05:38.487Z,40.60
2022-11-16T23:08:42.961Z,42.70
2022-11-16T23:12:05.761Z,40.63
2022-11-16T23:15:32.336Z,42.72
2022-11-16T23:18:36.913Z,37.97
2022-11-16T23:21:59.971Z,37.80
2022-11-16T23:25:24.264Z,39.60
2022-11-16T23:28:28.663Z,41.88
2022-11-16T23:31:33.118Z,46.35
2022-11-16T23:34:37.760Z,44.60
2022-11-16T23:37:55.655Z,47.05
2022-11-16T23:41:20.232Z,41.58
2022-11-16T23:44:24.466Z,41.17
2022-11-16T23:47:29.198Z,39.67
2022-11-16T23:50:33.490Z,44.90
2022-11-16T23:53:38.200Z,42.47
2022-11-16T23:56:42.904Z,42.65
2022-11-16T23:59:47.367Z,53.15
